Time;durP1;ratioP1;P1;durP2;ratioP2;P2;SDS_P1;SDS_P2;PMS_P1;PMS_P2;Temp;Humidity;BMP_temperature;BMP_pressure;BME280_temperature;BME280_humidity;BME280_pressure;Samples;Min_cycle;Max_cycle;Signal;HPM_P1;HPM_P2
2023/09/28 00:01:18;;;;;;;9.07;4.00;;;17.60;99.90;;;;;;5023579;28;20038;-73
2023/09/28 00:03:45;;;;;;;8.30;3.88;;;17.60;99.90;;;;;;5022993;28;20092;-73
2023/09/28 00:06:11;;;;;;;7.32;3.63;;;17.50;99.90;;;;;;5024145;28;20450;-73
2023/09/28 00:08:37;;;;;;;6.38;3.55;;;17.50;99.90;;;;;;5021231;28;20454;-73
2023/09/28 00:11:04;;;;;;;7.28;3.05;;;17.50;99.90;;;;;;5021766;28;20068;-73
2023/09/28 00:13:29;;;;;;;5.22;3.28;;;17.50;99.90;;;;;;5023316;28;20037;-73
2023/09/28 00:15:55;;;;;;;6.75;3.25;;;17.50;99.90;;;;;;5007287;28;20038;-74
2023/09/28 00:18:23;;;;;;;6.35;3.50;;;17.50;99.90;;;;;;5006554;28;20613;-73
2023/09/28 00:20:49;;;;;;;4.75;3.05;;;17.50;99.90;;;;;;5022356;28;20518;-74
2023/09/28 00:23:17;;;;;;;5.53;3.05;;;17.50;99.90;;;;;;5019100;28;20065;-73
2023/09/28 00:25:43;;;;;;;4.75;2.88;;;17.50;99.90;;;;;;5022282;28;20076;-74
2023/09/28 00:28:09;;;;;;;5.03;3.40;;;17.50;99.90;;;;;;5019342;28;20442;-73
2023/09/28 00:30:34;;;;;;;5.97;3.40;;;17.50;99.90;;;;;;5021084;28;20054;-74
2023/09/28 00:33:00;;;;;;;5.68;3.30;;;17.50;99.90;;;;;;5022566;28;20036;-74
2023/09/28 00:35:26;;;;;;;5.38;3.28;;;17.50;99.90;;;;;;5022354;28;20038;-73
2023/09/28 00:37:52;;;;;;;4.93;2.88;;;17.50;99.90;;;;;;5022589;28;20035;-74
2023/09/28 00:40:19;;;;;;;5.70;2.97;;;17.50;99.90;;;;;;5022164;28;20040;-74
2023/09/28 00:42:46;;;;;;;6.68;3.63;;;17.50;99.90;;;;;;5026248;28;20037;-74
2023/09/28 00:45:13;;;;;;;7.53;3.33;;;17.50;99.90;;;;;;5025316;28;20314;-74
2023/09/28 00:47:39;;;;;;;6.70;3.33;;;17.50;99.90;;;;;;5027537;28;20045;-74
2023/09/28 00:50:10;;;;;;;6.38;3.30;;;17.50;99.90;;;;;;5045394;28;20065;-74
2023/09/28 00:52:42;;;;;;;6.05;3.20;;;17.50;99.90;;;;;;5017408;28;20040;-74
2023/09/28 00:55:10;;;;;;;6.00;3.33;;;17.60;99.90;;;;;;5025507;28;20144;-74
2023/09/28 00:57:39;;;;;;;5.80;3.40;;;17.60;99.90;;;;;;5004625;28;20116;-74
2023/09/28 01:00:25;;;;;;;6.20;3.67;;;17.50;99.90;;;;;;5022916;28;20052;-74
2023/09/28 01:02:53;;;;;;;6.72;3.67;;;17.60;99.90;;;;;;5026052;28;20048;-73
2023/09/28 01:05:26;;;;;;;5.03;3.10;;;17.60;99.90;;;;;;5026205;28;20040;-73
2023/09/28 01:07:53;;;;;;;6.85;3.58;;;17.60;99.90;;;;;;5004697;28;20037;-73
2023/09/28 01:10:25;;;;;;;5.55;3.50;;;17.60;99.90;;;;;;5025848;28;20060;-73
2023/09/28 01:12:51;;;;;;;6.47;3.33;;;17.60;99.90;;;;;;5024291;28;20043;-74
2023/09/28 01:15:17;;;;;;;7.20;3.90;;;17.60;99.90;;;;;;5009549;28;20044;-74
2023/09/28 01:17:43;;;;;;;3.92;2.95;;;17.60;99.90;;;;;;5025302;28;20041;-73
2023/09/28 01:20:17;;;;;;;6.65;3.60;;;17.50;99.90;;;;;;5041896;28;20044;-73
2023/09/28 01:22:49;;;;;;;4.53;2.95;;;17.60;99.90;;;;;;5009485;28;20038;-74
2023/09/28 01:25:15;;;;;;;6.28;3.25;;;17.50;99.90;;;;;;5007579;28;20041;-74
2023/09/28 01:27:46;;;;;;;6.47;2.83;;;17.50;99.90;;;;;;5022518;28;20563;-73
2023/09/28 01:30:13;;;;;;;5.95;3.33;;;17.50;99.90;;;;;;5024623;28;20037;-74
2023/09/28 01:32:39;;;;;;;7.25;3.20;;;17.50;99.90;;;;;;5041415;28;20053;-74
2023/09/28 01:35:06;;;;;;;5.47;3.50;;;17.50;99.90;;;;;;5029398;28;20045;-74
2023/09/28 01:37:45;;;;;;;4.70;2.83;;;17.50;99.90;;;;;;5042902;28;20376;-73
2023/09/28 01:40:13;;;;;;;4.55;3.22;;;17.50;99.90;;;;;;5024607;28;20068;-74
2023/09/28 01:42:39;;;;;;;6.68;3.70;;;17.50;99.90;;;;;;5025282;28;20399;-73
2023/09/28 01:45:05;;;;;;;6.80;3.30;;;17.40;99.90;;;;;;5027023;28;20045;-73
2023/09/28 01:47:31;;;;;;;5.18;3.10;;;17.50;99.90;;;;;;5028320;28;20095;-74
2023/09/28 01:49:58;;;;;;;8.57;3.88;;;17.40;99.90;;;;;;5029477;28;20141;-73
2023/09/28 01:52:24;;;;;;;6.13;3.45;;;17.40;99.90;;;;;;5009682;28;20120;-74
2023/09/28 01:54:50;;;;;;;5.90;2.80;;;17.40;99.90;;;;;;5026061;28;20132;-73
2023/09/28 01:57:15;;;;;;;5.18;3.30;;;17.40;99.90;;;;;;5024315;28;20049;-73
2023/09/28 01:59:41;;;;;;;5.38;3.38;;;17.40;99.90;;;;;;5024554;28;20220;-73
2023/09/28 02:02:07;;;;;;;6.03;3.65;;;17.40;99.90;;;;;;5023384;28;20152;-74
2023/09/28 02:04:32;;;;;;;7.45;3.30;;;17.40;99.90;;;;;;5024529;28;20044;-74
2023/09/28 02:06:58;;;;;;;6.10;3.20;;;17.40;99.90;;;;;;5024392;28;20427;-74
2023/09/28 02:09:25;;;;;;;7.40;3.10;;;17.30;99.90;;;;;;5024649;28;20137;-74
2023/09/28 02:11:50;;;;;;;7.60;3.50;;;17.30;99.90;;;;;;5020227;28;20040;-74
2023/09/28 02:14:16;;;;;;;5.80;3.28;;;17.30;99.90;;;;;;5010235;28;20038;-74
2023/09/28 02:16:42;;;;;;;4.07;2.75;;;17.30;99.90;;;;;;5025001;28;20041;-74
2023/09/28 02:19:11;;;;;;;6.43;3.45;;;17.30;99.90;;;;;;5025218;28;20037;-73
2023/09/28 02:21:36;;;;;;;7.40;3.30;;;17.20;99.90;;;;;;5025090;28;20033;-73
2023/09/28 02:24:02;;;;;;;5.88;3.05;;;17.30;99.90;;;;;;5025868;28;20026;-74
2023/09/28 02:26:28;;;;;;;5.85;2.85;;;17.20;99.90;;;;;;5024220;28;20100;-74
2023/09/28 02:28:53;;;;;;;6.32;3.33;;;17.20;99.90;;;;;;5025617;28;20038;-74
2023/09/28 02:31:19;;;;;;;5.53;2.97;;;17.20;99.90;;;;;;5021636;28;20037;-73
2023/09/28 02:33:47;;;;;;;8.75;3.15;;;17.10;99.90;;;;;;5024815;28;20245;-73
2023/09/28 02:36:12;;;;;;;4.93;2.85;;;17.10;99.90;;;;;;5023976;28;20045;-73
2023/09/28 02:38:38;;;;;;;7.28;3.25;;;17.10;99.90;;;;;;5027998;28;20068;-73
2023/09/28 02:41:04;;;;;;;9.10;3.13;;;17.10;99.90;;;;;;5039140;28;20546;-73
2023/09/28 02:43:30;;;;;;;5.47;3.10;;;17.10;99.90;;;;;;5024195;28;20034;-73
2023/09/28 02:45:55;;;;;;;7.90;3.35;;;17.10;99.90;;;;;;5022001;28;20483;-73
2023/09/28 02:48:21;;;;;;;5.43;3.25;;;17.00;99.90;;;;;;5005759;28;20029;-73
2023/09/28 02:50:48;;;;;;;6.20;2.92;;;17.10;99.90;;;;;;5024614;28;20137;-73
2023/09/28 02:53:14;;;;;;;5.38;3.13;;;17.00;99.90;;;;;;5025239;28;20033;-73
2023/09/28 02:55:40;;;;;;;7.18;3.30;;;17.00;99.90;;;;;;5006400;28;20492;-73
2023/09/28 02:58:06;;;;;;;5.50;2.80;;;17.00;99.90;;;;;;5024031;28;20044;-73
2023/09/28 03:00:32;;;;;;;6.32;3.10;;;17.00;99.90;;;;;;5022966;28;20067;-73
2023/09/28 03:03:09;;;;;;;7.57;3.25;;;16.90;99.90;;;;;;5007947;28;20056;-73
2023/09/28 03:05:38;;;;;;;5.75;2.83;;;16.90;99.90;;;;;;5024196;28;20706;-74
2023/09/28 03:08:09;;;;;;;5.00;2.75;;;16.90;99.90;;;;;;5039886;28;20038;-74
2023/09/28 03:10:39;;;;;;;6.60;3.55;;;16.90;99.90;;;;;;5021685;28;20103;-73
2023/09/28 03:13:05;;;;;;;4.85;2.80;;;16.90;99.90;;;;;;5021783;28;20049;-73
2023/09/28 03:15:32;;;;;;;5.38;3.00;;;16.90;99.90;;;;;;5006568;28;20041;-73
2023/09/28 03:17:57;;;;;;;5.50;3.00;;;16.90;99.90;;;;;;5007445;28;20052;-73
2023/09/28 03:20:25;;;;;;;5.75;2.70;;;16.80;99.90;;;;;;5022492;28;21834;-73
2023/09/28 03:22:51;;;;;;;5.88;3.35;;;16.90;99.90;;;;;;5024842;28;20049;-73
2023/09/28 03:25:22;;;;;;;6.47;3.30;;;16.80;99.90;;;;;;5021233;28;20076;-73
2023/09/28 03:27:52;;;;;;;6.85;3.15;;;16.90;99.90;;;;;;5022082;28;20048;-73
2023/09/28 03:30:20;;;;;;;5.93;3.00;;;16.80;99.90;;;;;;5007314;28;20072;-73
2023/09/28 03:32:49;;;;;;;6.07;2.90;;;16.80;99.90;;;;;;5021740;28;20103;-74
2023/09/28 03:35:16;;;;;;;4.57;3.17;;;16.80;99.90;;;;;;5022044;28;20064;-73
2023/09/28 03:37:43;;;;;;;5.78;3.10;;;16.80;99.90;;;;;;5007978;28;20132;-73
2023/09/28 03:40:10;;;;;;;5.90;2.90;;;16.80;99.90;;;;;;5004960;28;20329;-74
2023/09/28 03:42:41;;;;;;;6.03;3.00;;;16.80;99.90;;;;;;5005351;28;20029;-73
2023/09/28 03:45:08;;;;;;;6.45;3.38;;;16.70;99.90;;;;;;5024963;28;20045;-73
2023/09/28 03:47:40;;;;;;;5.25;2.97;;;16.80;99.90;;;;;;5009257;28;20051;-73
2023/09/28 03:50:12;;;;;;;5.78;2.97;;;16.80;99.90;;;;;;5043340;28;20056;-73
2023/09/28 03:52:39;;;;;;;8.15;3.28;;;16.80;99.90;;;;;;4995076;28;20130;-74
2023/09/28 03:55:08;;;;;;;5.53;3.10;;;16.70;99.90;;;;;;5021970;28;20053;-73
2023/09/28 03:57:33;;;;;;;6.38;3.20;;;16.70;99.90;;;;;;5020819;28;20037;-73
2023/09/28 03:59:59;;;;;;;4.65;2.58;;;16.70;99.90;;;;;;5006699;28;20041;-73
2023/09/28 04:02:29;;;;;;;5.80;3.28;;;16.70;99.90;;;;;;5023491;28;20037;-73
2023/09/28 04:04:56;;;;;;;4.50;3.05;;;16.70;99.90;;;;;;5022665;28;20048;-73
2023/09/28 04:07:22;;;;;;;6.28;3.03;;;16.70;99.90;;;;;;5022739;28;20037;-73
2023/09/28 04:09:48;;;;;;;5.35;3.28;;;16.70;99.90;;;;;;5005545;28;20045;-74
2023/09/28 04:12:15;;;;;;;7.40;3.20;;;16.70;99.90;;;;;;5006137;28;20037;-73
2023/09/28 04:14:41;;;;;;;5.00;2.95;;;16.60;99.90;;;;;;5006877;28;20048;-74
2023/09/28 04:17:06;;;;;;;5.28;3.33;;;16.60;99.90;;;;;;5007211;28;20042;-73
2023/09/28 04:19:33;;;;;;;6.03;3.53;;;16.60;99.90;;;;;;5021657;28;20056;-73
2023/09/28 04:21:58;;;;;;;6.78;3.55;;;16.60;99.90;;;;;;5001817;28;20041;-73
2023/09/28 04:24:24;;;;;;;6.93;3.22;;;16.60;99.90;;;;;;5021941;28;20044;-73
2023/09/28 04:26:51;;;;;;;6.85;2.83;;;16.50;99.90;;;;;;5025343;28;20089;-73
2023/09/28 04:29:17;;;;;;;5.75;3.17;;;16.50;99.90;;;;;;5010328;28;20130;-73
2023/09/28 04:31:43;;;;;;;5.30;2.80;;;16.50;99.90;;;;;;5026761;28;20391;-73
2023/09/28 04:34:12;;;;;;;6.00;2.95;;;16.50;99.90;;;;;;5011717;28;20029;-74
2023/09/28 04:36:38;;;;;;;6.32;3.03;;;16.50;99.90;;;;;;5024861;28;20120;-73
2023/09/28 04:39:05;;;;;;;5.47;3.03;;;16.50;99.90;;;;;;5025578;28;20074;-73
2023/09/28 04:41:31;;;;;;;7.07;3.17;;;16.50;99.90;;;;;;5008443;28;20041;-74
2023/09/28 04:43:58;;;;;;;5.80;2.85;;;16.50;99.90;;;;;;5025405;28;20049;-74
2023/09/28 04:46:26;;;;;;;6.18;3.20;;;16.40;99.90;;;;;;5023456;28;20044;-73
2023/09/28 04:48:53;;;;;;;7.35;3.35;;;16.40;99.90;;;;;;5023697;28;20507;-73
2023/09/28 04:51:19;;;;;;;5.70;3.28;;;16.40;99.90;;;;;;5026741;28;20527;-73
2023/09/28 04:53:45;;;;;;;5.43;3.17;;;16.40;99.90;;;;;;5006270;28;20049;-73
2023/09/28 04:56:12;;;;;;;6.63;3.13;;;16.40;99.90;;;;;;5023195;28;20049;-73
2023/09/28 04:58:38;;;;;;;6.28;3.30;;;16.30;99.90;;;;;;5025634;28;20517;-73
2023/09/28 05:01:07;;;;;;;6.72;3.30;;;16.30;99.90;;;;;;5025339;28;20041;-73
2023/09/28 05:03:33;;;;;;;5.57;3.05;;;16.30;99.90;;;;;;5007836;28;20041;-73
2023/09/28 05:05:59;;;;;;;6.68;3.63;;;16.30;99.90;;;;;;5007797;28;20044;-73
2023/09/28 05:08:25;;;;;;;4.78;2.90;;;16.30;99.90;;;;;;5010851;28;20041;-73
2023/09/28 05:10:52;;;;;;;5.95;3.42;;;16.30;99.90;;;;;;5024912;28;20060;-73
2023/09/28 05:13:19;;;;;;;7.00;3.53;;;16.10;99.90;;;;;;5009915;28;20037;-73
2023/09/28 05:15:45;;;;;;;6.22;3.60;;;16.20;99.90;;;;;;5026959;28;20037;-73
2023/09/28 05:18:10;;;;;;;5.78;3.38;;;16.20;99.90;;;;;;5026501;28;20067;-73
2023/09/28 05:20:36;;;;;;;5.22;3.15;;;16.20;99.90;;;;;;5024827;28;20047;-73
2023/09/28 05:23:03;;;;;;;7.13;3.30;;;16.10;99.90;;;;;;5023902;28;20387;-73
2023/09/28 05:25:29;;;;;;;7.30;3.50;;;16.10;99.90;;;;;;5024385;28;20470;-74
2023/09/28 05:27:55;;;;;;;4.60;3.20;;;16.10;99.90;;;;;;5025654;28;20045;-74
2023/09/28 05:30:20;;;;;;;5.97;3.08;;;16.20;99.90;;;;;;5007493;28;20040;-74
2023/09/28 05:32:46;;;;;;;4.45;2.50;;;16.10;99.90;;;;;;5010197;28;20084;-74
2023/09/28 05:35:11;;;;;;;5.30;3.05;;;16.10;99.90;;;;;;5035997;28;20462;-74
2023/09/28 05:37:37;;;;;;;6.05;3.63;;;16.10;99.90;;;;;;5025880;28;20471;-74
2023/09/28 05:40:04;;;;;;;5.57;3.15;;;16.10;99.90;;;;;;5008111;28;20052;-74
2023/09/28 05:42:34;;;;;;;8.77;3.17;;;16.10;99.90;;;;;;5025350;28;20120;-74
2023/09/28 05:45:00;;;;;;;5.25;3.22;;;16.10;99.90;;;;;;5025648;28;20502;-74
2023/09/28 05:47:26;;;;;;;6.00;3.15;;;16.10;99.90;;;;;;5027864;28;20041;-74
2023/09/28 05:49:52;;;;;;;5.53;2.90;;;16.00;99.90;;;;;;5029569;28;20038;-74
2023/09/28 05:52:18;;;;;;;6.13;3.20;;;16.00;99.90;;;;;;5008929;28;20021;-74
2023/09/28 05:54:44;;;;;;;5.20;3.00;;;16.00;99.90;;;;;;5026186;28;20565;-74
2023/09/28 05:57:11;;;;;;;5.43;2.90;;;16.00;99.90;;;;;;5008376;28;20059;-74
2023/09/28 05:59:37;;;;;;;5.45;2.90;;;16.00;99.90;;;;;;5025017;28;20040;-74
2023/09/28 06:02:03;;;;;;;4.75;2.85;;;16.00;99.90;;;;;;5024102;28;20045;-74
2023/09/28 06:04:28;;;;;;;6.53;3.15;;;16.00;99.90;;;;;;5005188;28;20045;-74
2023/09/28 06:06:54;;;;;;;7.60;3.05;;;16.00;99.90;;;;;;5025366;28;20051;-74
2023/09/28 06:09:19;;;;;;;4.82;2.92;;;16.00;99.90;;;;;;5008169;28;20065;-75
2023/09/28 06:11:46;;;;;;;6.55;2.63;;;16.00;99.90;;;;;;5022473;28;20041;-75
2023/09/28 06:14:14;;;;;;;5.75;3.08;;;16.10;99.90;;;;;;5021991;28;20135;-73
2023/09/28 06:16:42;;;;;;;8.38;2.83;;;16.10;99.90;;;;;;5021899;28;20067;-74
2023/09/28 06:19:07;;;;;;;7.55;2.80;;;16.10;99.90;;;;;;5023795;28;20076;-74
2023/09/28 06:21:33;;;;;;;4.75;2.30;;;16.10;99.90;;;;;;5022643;28;20507;-74
2023/09/28 06:23:59;;;;;;;5.75;2.40;;;16.10;99.90;;;;;;5022088;28;20073;-74
2023/09/28 06:26:24;;;;;;;4.45;2.40;;;16.10;99.90;;;;;;5022024;28;20041;-73
2023/09/28 06:28:50;;;;;;;5.13;2.08;;;16.10;99.90;;;;;;5003671;28;20061;-74
2023/09/28 06:31:18;;;;;;;4.97;2.33;;;16.20;99.90;;;;;;5017402;28;20176;-74
2023/09/28 06:33:47;;;;;;;7.63;2.50;;;16.10;99.90;;;;;;5016957;28;20585;-73
2023/09/28 06:36:13;;;;;;;4.95;2.40;;;16.10;99.90;;;;;;5020436;28;20029;-73
2023/09/28 06:38:39;;;;;;;4.88;2.30;;;16.10;99.90;;;;;;5005510;28;20092;-74
2023/09/28 06:41:04;;;;;;;4.50;2.25;;;16.10;99.90;;;;;;5023213;28;20041;-73
2023/09/28 06:43:30;;;;;;;8.85;2.65;;;16.20;99.90;;;;;;5028437;28;20037;-73
2023/09/28 06:45:59;;;;;;;4.88;1.63;;;16.10;99.90;;;;;;5023260;28;20048;-73
2023/09/28 06:48:26;;;;;;;7.85;2.00;;;16.20;99.90;;;;;;5037437;28;20037;-74
2023/09/28 06:50:56;;;;;;;8.95;2.17;;;16.20;99.90;;;;;;5021918;28;20037;-74
2023/09/28 06:53:21;;;;;;;5.70;1.65;;;16.20;99.90;;;;;;5021322;28;20384;-74
2023/09/28 06:55:47;;;;;;;5.63;1.77;;;16.20;99.90;;;;;;5005223;28;20056;-74
2023/09/28 06:58:14;;;;;;;3.65;1.45;;;16.30;99.90;;;;;;5023981;28;20483;-74
2023/09/28 07:00:41;;;;;;;7.05;1.70;;;16.30;99.90;;;;;;5004891;28;20049;-74
2023/09/28 07:03:08;;;;;;;6.03;1.88;;;16.30;99.90;;;;;;5023264;28;20068;-74
2023/09/28 07:05:34;;;;;;;7.22;1.90;;;16.30;99.90;;;;;;5004955;28;20048;-74
2023/09/28 07:08:00;;;;;;;5.30;1.95;;;16.30;99.90;;;;;;5018255;28;20026;-74
2023/09/28 07:10:26;;;;;;;5.00;1.73;;;16.30;99.90;;;;;;5004069;28;20536;-73
2023/09/28 07:12:52;;;;;;;7.18;2.03;;;16.30;99.90;;;;;;5023379;28;20120;-74
2023/09/28 07:15:18;;;;;;;11.02;2.00;;;16.40;99.90;;;;;;5023237;28;20037;-74
2023/09/28 07:17:44;;;;;;;6.97;2.05;;;16.40;99.90;;;;;;5024251;28;20049;-75
2023/09/28 07:20:14;;;;;;;8.52;1.60;;;16.30;99.90;;;;;;5019494;28;20464;-75
2023/09/28 07:22:40;;;;;;;4.75;1.60;;;16.40;99.90;;;;;;5023209;28;20465;-75
2023/09/28 07:25:06;;;;;;;4.45;1.65;;;16.50;99.90;;;;;;5020716;28;20038;-74
2023/09/28 07:27:32;;;;;;;8.00;1.45;;;16.50;99.90;;;;;;5027249;28;20431;-74
2023/09/28 07:29:59;;;;;;;8.27;1.60;;;16.50;99.90;;;;;;5026954;28;20045;-74
2023/09/28 07:32:26;;;;;;;9.38;1.50;;;16.50;99.90;;;;;;5023999;28;20080;-74
2023/09/28 07:34:52;;;;;;;11.48;1.75;;;16.50;99.90;;;;;;5027837;28;20041;-74
2023/09/28 07:37:18;;;;;;;8.75;1.98;;;16.60;99.90;;;;;;5028118;28;20046;-74
2023/09/28 07:39:44;;;;;;;7.50;1.73;;;16.60;99.90;;;;;;5028186;28;20076;-75
2023/09/28 07:42:10;;;;;;;8.00;1.42;;;16.60;99.90;;;;;;5005751;28;20038;-74
2023/09/28 07:44:35;;;;;;;12.20;2.15;;;16.60;99.90;;;;;;5011752;28;20045;-75
2023/09/28 07:47:01;;;;;;;6.78;1.40;;;16.70;99.90;;;;;;5027304;28;20037;-75
2023/09/28 07:49:27;;;;;;;7.22;1.75;;;16.70;99.90;;;;;;5011666;28;20473;-74
2023/09/28 07:51:55;;;;;;;6.80;1.63;;;16.70;99.90;;;;;;5027584;28;20033;-74
2023/09/28 07:54:21;;;;;;;8.48;2.00;;;16.80;99.90;;;;;;5050998;28;20045;-74
2023/09/28 07:56:47;;;;;;;6.47;1.50;;;16.80;99.90;;;;;;5009163;28;20041;-75
2023/09/28 07:59:13;;;;;;;5.25;1.70;;;16.90;99.90;;;;;;5031208;28;20538;-74
2023/09/28 08:01:40;;;;;;;3.97;1.58;;;16.90;99.90;;;;;;5031745;28;20118;-75
2023/09/28 08:04:05;;;;;;;7.22;1.45;;;16.90;99.90;;;;;;5015231;28;20127;-75
2023/09/28 08:06:32;;;;;;;9.57;1.88;;;17.00;99.90;;;;;;5031601;28;20100;-74
2023/09/28 08:08:58;;;;;;;8.88;1.63;;;17.00;99.90;;;;;;5014230;28;20156;-75
2023/09/28 08:11:24;;;;;;;9.05;1.35;;;17.10;99.90;;;;;;5030170;28;20168;-75
2023/09/28 08:13:50;;;;;;;6.43;1.85;;;17.10;99.90;;;;;;5015348;28;20399;-75
2023/09/28 08:16:15;;;;;;;13.13;2.15;;;17.20;99.90;;;;;;5015126;28;20048;-74
2023/09/28 08:18:41;;;;;;;12.38;1.50;;;17.20;99.90;;;;;;5031932;28;20075;-75
2023/09/28 08:21:06;;;;;;;6.10;1.13;;;17.20;99.90;;;;;;5010861;28;20180;-74
2023/09/28 08:23:32;;;;;;;11.23;1.48;;;17.20;99.90;;;;;;5030407;28;20124;-74
2023/09/28 08:25:58;;;;;;;11.95;1.83;;;17.40;99.90;;;;;;5023336;28;20049;-75
2023/09/28 08:28:24;;;;;;;13.70;1.88;;;17.40;99.90;;;;;;5026737;28;20041;-76
2023/09/28 08:30:49;;;;;;;10.30;1.55;;;17.40;99.90;;;;;;5011827;28;20387;-75
2023/09/28 08:33:16;;;;;;;7.63;2.15;;;17.40;99.90;;;;;;5030530;28;20041;-75
2023/09/28 08:35:50;;;;;;;5.95;1.35;;;17.40;99.90;;;;;;5031945;28;20057;-75
2023/09/28 08:38:16;;;;;;;14.35;1.95;;;17.50;99.90;;;;;;5025236;28;20817;-74
2023/09/28 08:40:42;;;;;;;6.30;1.98;;;17.50;99.90;;;;;;5018179;28;20258;-74
2023/09/28 08:43:11;;;;;;;6.78;1.70;;;17.50;99.90;;;;;;5020274;28;20049;-74
2023/09/28 08:45:40;;;;;;;9.38;1.52;;;17.60;99.90;;;;;;5036563;28;20042;-74
2023/09/28 08:48:11;;;;;;;8.50;1.75;;;17.60;99.90;;;;;;5012256;28;20037;-75
2023/09/28 08:50:39;;;;;;;10.70;1.63;;;17.70;99.90;;;;;;5010628;28;20364;-75
2023/09/28 08:53:05;;;;;;;4.80;1.20;;;17.70;99.90;;;;;;5027542;28;20495;-74
2023/09/28 08:55:36;;;;;;;10.88;1.60;;;17.80;99.90;;;;;;5026072;28;20376;-74
2023/09/28 08:58:02;;;;;;;9.43;1.60;;;17.80;99.90;;;;;;5031017;28;20041;-74
2023/09/28 09:00:29;;;;;;;8.77;1.58;;;17.90;99.90;;;;;;5028806;28;20566;-74
2023/09/28 09:02:58;;;;;;;11.05;1.92;;;17.90;99.90;;;;;;5029153;28;20049;-74
2023/09/28 09:05:29;;;;;;;4.68;1.20;;;17.90;99.90;;;;;;5011161;28;20037;-74
2023/09/28 09:07:56;;;;;;;7.85;2.15;;;17.90;99.90;;;;;;5023455;28;20033;-74
2023/09/28 09:10:24;;;;;;;7.57;1.30;;;18.00;99.90;;;;;;5025675;28;20045;-74
2023/09/28 09:12:50;;;;;;;11.32;1.42;;;18.00;99.90;;;;;;5026236;28;20052;-74
2023/09/28 09:15:17;;;;;;;11.15;2.10;;;18.00;99.90;;;;;;5024118;28;20049;-74
2023/09/28 09:17:44;;;;;;;11.55;1.83;;;18.10;99.90;;;;;;5006847;28;20092;-74
2023/09/28 09:20:10;;;;;;;6.20;1.13;;;18.10;99.90;;;;;;5025322;28;20494;-77
2023/09/28 09:22:35;;;;;;;10.55;1.50;;;18.10;99.90;;;;;;5042405;28;20063;-74
2023/09/28 09:25:02;;;;;;;7.50;1.23;;;18.20;99.90;;;;;;5026712;28;20045;-75
2023/09/28 09:27:28;;;;;;;12.45;2.15;;;18.10;99.90;;;;;;5027772;28;20034;-75
2023/09/28 09:30:08;;;;;;;9.00;2.03;;;18.10;99.90;;;;;;5027458;28;20029;-75
2023/09/28 09:32:40;;;;;;;4.60;1.55;;;18.10;99.90;;;;;;5019954;28;20056;-74
2023/09/28 09:35:06;;;;;;;6.70;1.90;;;18.10;99.90;;;;;;5009232;28;20041;-74
2023/09/28 09:37:32;;;;;;;8.43;1.50;;;18.10;99.90;;;;;;5036319;28;20060;-75
2023/09/28 09:40:15;;;;;;;9.23;1.48;;;18.10;99.90;;;;;;5009958;28;20045;-75
2023/09/28 09:42:41;;;;;;;7.97;1.65;;;18.10;99.90;;;;;;5022212;28;20099;-74
2023/09/28 09:45:08;;;;;;;10.88;1.50;;;18.10;99.90;;;;;;5011411;28;20238;-74
2023/09/28 09:47:34;;;;;;;7.80;1.35;;;18.10;99.90;;;;;;5025092;28;20112;-75
2023/09/28 09:50:01;;;;;;;7.10;1.85;;;18.10;99.90;;;;;;5008227;28;20546;-75
2023/09/28 09:52:28;;;;;;;9.13;1.38;;;18.20;99.90;;;;;;5038646;28;20144;-75
2023/09/28 09:54:54;;;;;;;10.25;1.88;;;18.20;99.90;;;;;;5022914;28;20377;-80
2023/09/28 09:57:23;;;;;;;7.88;2.25;;;18.10;99.90;;;;;;5024492;28;20041;-75
2023/09/28 09:59:53;;;;;;;5.95;1.50;;;18.20;99.90;;;;;;5025962;28;20517;-75
2023/09/28 10:02:28;;;;;;;5.93;1.20;;;18.20;99.90;;;;;;5026361;28;20751;-74
2023/09/28 10:04:54;;;;;;;6.70;1.38;;;18.30;99.90;;;;;;5025273;28;20045;-75
2023/09/28 10:07:26;;;;;;;7.55;1.60;;;18.30;99.90;;;;;;5006259;28;20325;-76
2023/09/28 10:09:53;;;;;;;9.25;1.42;;;18.20;99.90;;;;;;5022475;28;20044;-75
2023/09/28 10:12:21;;;;;;;6.55;1.33;;;18.30;99.90;;;;;;5003694;28;20390;-76
2023/09/28 10:14:47;;;;;;;8.82;1.25;;;18.30;99.90;;;;;;5016811;28;20041;-76
2023/09/28 10:17:12;;;;;;;9.65;1.90;;;18.30;99.90;;;;;;5008259;28;20048;-76
2023/09/28 10:19:39;;;;;;;13.93;1.45;;;18.40;99.90;;;;;;5023023;28;20072;-75
2023/09/28 10:22:05;;;;;;;10.68;1.80;;;18.40;99.90;;;;;;5021887;28;20508;-76
2023/09/28 10:24:32;;;;;;;8.73;1.42;;;18.40;99.90;;;;;;5023627;28;20040;-76
2023/09/28 10:27:10;;;;;;;7.47;1.20;;;18.40;99.90;;;;;;5022770;28;20407;-76
2023/09/28 10:29:36;;;;;;;6.25;1.10;;;18.40;99.90;;;;;;5006537;28;20056;-76
2023/09/28 10:32:25;;;;;;;8.68;1.27;;;18.40;99.90;;;;;;5021934;28;20038;-75
2023/09/28 10:35:13;;;;;;;4.15;1.40;;;18.40;99.90;;;;;;5021255;28;20068;-75
2023/09/28 10:37:39;;;;;;;3.55;0.80;;;18.40;99.90;;;;;;5022533;28;20386;-75
2023/09/28 10:40:06;;;;;;;8.52;1.10;;;18.40;99.90;;;;;;5006353;28;20044;-75
2023/09/28 10:42:32;;;;;;;6.88;1.23;;;18.40;99.90;;;;;;5023339;28;20388;-75
2023/09/28 10:45:00;;;;;;;8.32;1.55;;;18.40;99.90;;;;;;5024108;28;20045;-75
2023/09/28 10:47:27;;;;;;;4.03;1.00;;;18.40;99.90;;;;;;5004236;28;20446;-75
2023/09/28 10:50:05;;;;;;;6.45;1.30;;;18.40;99.90;;;;;;5023920;28;20395;-75
2023/09/28 10:52:31;;;;;;;7.90;1.50;;;18.40;99.90;;;;;;5001824;28;20029;-73
2023/09/28 10:54:57;;;;;;;5.82;1.08;;;18.40;99.90;;;;;;5020374;28;20033;-75
2023/09/28 10:57:30;;;;;;;7.30;1.17;;;18.50;99.90;;;;;;5000825;28;20052;-75
2023/09/28 11:00:01;;;;;;;8.32;1.30;;;18.50;99.90;;;;;;5015722;28;20056;-73
2023/09/28 11:02:26;;;;;;;12.20;1.15;;;18.60;99.90;;;;;;5017499;28;20056;-74
2023/09/28 11:04:52;;;;;;;9.00;1.25;;;18.60;99.90;;;;;;5018268;28;20514;-74
2023/09/28 11:07:18;;;;;;;6.85;1.27;;;18.60;99.90;;;;;;5017477;28;20075;-74
2023/09/28 11:09:43;;;;;;;5.65;1.00;;;18.70;99.90;;;;;;5001388;28;20407;-74
2023/09/28 11:12:09;;;;;;;6.43;1.00;;;18.60;99.90;;;;;;5017825;28;20034;-71
2023/09/28 11:14:36;;;;;;;7.75;1.10;;;18.70;99.90;;;;;;5016800;28;20090;-74
2023/09/28 11:17:03;;;;;;;6.60;0.90;;;18.70;99.90;;;;;;5019057;28;20045;-76
2023/09/28 11:19:29;;;;;;;4.30;1.05;;;18.70;99.90;;;;;;5022588;28;20107;-74
2023/09/28 11:21:55;;;;;;;3.30;1.00;;;18.70;99.90;;;;;;5018396;28;20433;-74
2023/09/28 11:24:20;;;;;;;5.85;1.27;;;18.80;99.90;;;;;;5021947;28;20033;-74
2023/09/28 11:26:46;;;;;;;4.03;0.75;;;18.80;99.90;;;;;;4999163;28;20091;-73
2023/09/28 11:29:14;;;;;;;7.47;1.30;;;18.90;99.90;;;;;;5017980;28;20057;-74
2023/09/28 11:31:48;;;;;;;5.60;1.08;;;18.90;99.90;;;;;;5033839;28;20042;-74
2023/09/28 11:34:25;;;;;;;6.30;1.30;;;18.90;99.90;;;;;;5018078;28;20280;-73
2023/09/28 11:36:52;;;;;;;6.65;1.33;;;19.00;99.90;;;;;;5017875;28;20049;-74
2023/09/28 11:39:18;;;;;;;3.33;0.80;;;19.00;99.90;;;;;;5021147;28;20041;-74
2023/09/28 11:41:57;;;;;;;3.65;0.80;;;19.00;99.90;;;;;;5021334;28;20579;-74
2023/09/28 11:44:27;;;;;;;10.48;1.35;;;19.00;99.90;;;;;;5018773;28;20124;-74
2023/09/28 11:46:54;;;;;;;6.97;1.50;;;19.00;99.90;;;;;;5003424;28;20044;-74
2023/09/28 11:49:21;;;;;;;7.38;0.95;;;19.00;99.90;;;;;;5004730;28;20041;-74
2023/09/28 11:51:47;;;;;;;4.70;1.08;;;19.00;99.90;;;;;;5001749;28;20033;-74
2023/09/28 11:54:15;;;;;;;5.88;1.13;;;19.00;99.90;;;;;;5020055;28;20038;-74
2023/09/28 11:56:41;;;;;;;8.68;1.40;;;19.00;99.90;;;;;;5020556;28;20044;-74
2023/09/28 11:59:08;;;;;;;7.97;1.13;;;19.00;99.90;;;;;;5025827;28;20048;-74
2023/09/28 12:01:34;;;;;;;8.65;1.30;;;19.00;99.90;;;;;;5005310;28;20044;-74
2023/09/28 12:04:00;;;;;;;5.38;1.75;;;18.90;99.90;;;;;;5020246;28;20403;-74
2023/09/28 12:06:26;;;;;;;12.50;1.65;;;18.90;99.90;;;;;;5020040;28;20127;-74
2023/09/28 12:08:52;;;;;;;5.05;0.90;;;18.90;99.90;;;;;;5020572;28;20040;-74
2023/09/28 12:11:18;;;;;;;6.28;1.70;;;18.90;99.90;;;;;;5021432;28;20041;-73
2023/09/28 12:13:44;;;;;;;3.22;1.00;;;18.90;99.90;;;;;;5020483;28;20041;-74
2023/09/28 12:16:11;;;;;;;5.38;0.93;;;18.90;99.90;;;;;;5039156;28;20041;-74
2023/09/28 12:18:36;;;;;;;7.82;1.30;;;18.90;99.90;;;;;;5021692;28;20191;-74
2023/09/28 12:21:02;;;;;;;6.90;1.25;;;18.90;99.90;;;;;;5023529;28;20040;-74
2023/09/28 12:23:28;;;;;;;9.75;1.92;;;18.90;99.90;;;;;;5038533;28;20129;-74
2023/09/28 12:25:56;;;;;;;9.32;1.17;;;18.90;99.90;;;;;;5019292;28;20037;-74
2023/09/28 12:28:22;;;;;;;8.98;1.52;;;19.00;99.90;;;;;;5021911;28;20036;-74
2023/09/28 12:30:48;;;;;;;6.18;1.23;;;19.00;99.90;;;;;;5021325;28;20034;-74
2023/09/28 12:33:14;;;;;;;8.18;1.33;;;19.00;99.90;;;;;;5005824;28;20437;-74
2023/09/28 12:35:39;;;;;;;10.90;1.67;;;19.00;99.90;;;;;;5021276;28;20072;-75
2023/09/28 12:38:08;;;;;;;8.43;1.58;;;19.00;99.90;;;;;;5022884;28;20457;-74
2023/09/28 12:40:35;;;;;;;8.85;1.73;;;19.10;99.90;;;;;;5003092;28;20056;-74
2023/09/28 12:43:04;;;;;;;7.13;1.15;;;19.10;99.90;;;;;;5005329;28;20041;-74
2023/09/28 12:45:33;;;;;;;5.53;1.20;;;19.10;99.90;;;;;;5010072;28;20133;-75